sensor_id;sensor_type;location;lat;lon;timestamp;pressure;altitude;pressure_sealevel;temperature
11849;BMP180;5983;49.966;8.052;2023-02-26T00:00:17;100280.00;;;0.80
11849;BMP180;5983;49.966;8.052;2023-02-26T00:02:46;100287.00;;;0.90
11849;BMP180;5983;49.966;8.052;2023-02-26T00:05:15;100289.00;;;0.90
11849;BMP180;5983;49.966;8.052;2023-02-26T00:07:42;100288.00;;;0.90
11849;BMP180;5983;49.966;8.052;2023-02-26T00:10:12;100285.00;;;0.80
11849;BMP180;5983;49.966;8.052;2023-02-26T00:12:42;100279.00;;;0.80
11849;BMP180;5983;49.966;8.052;2023-02-26T00:15:11;100278.00;;;0.80
11849;BMP180;5983;49.966;8.052;2023-02-26T00:17:52;100279.00;;;0.90
11849;BMP180;5983;49.966;8.052;2023-02-26T00:20:21;100302.00;;;1.00
11849;BMP180;5983;49.966;8.052;2023-02-26T00:22:48;100289.00;;;1.10
11849;BMP180;5983;49.966;8.052;2023-02-26T00:25:15;100291.00;;;1.10
11849;BMP180;5983;49.966;8.052;2023-02-26T00:27:43;100288.00;;;1.20
11849;BMP180;5983;49.966;8.052;2023-02-26T00:30:11;100302.00;;;1.20
11849;BMP180;5983;49.966;8.052;2023-02-26T00:32:40;100289.00;;;1.20
11849;BMP180;5983;49.966;8.052;2023-02-26T00:35:14;100296.00;;;1.20
11849;BMP180;5983;49.966;8.052;2023-02-26T00:37:58;100309.00;;;1.30
11849;BMP180;5983;49.966;8.052;2023-02-26T00:40:37;100301.00;;;1.30
11849;BMP180;5983;49.966;8.052;2023-02-26T00:43:08;100297.00;;;1.30
11849;BMP180;5983;49.966;8.052;2023-02-26T00:45:38;100302.00;;;1.20
11849;BMP180;5983;49.966;8.052;2023-02-26T00:48:25;100306.00;;;1.20
11849;BMP180;5983;49.966;8.052;2023-02-26T00:51:01;100309.00;;;1.30
11849;BMP180;5983;49.966;8.052;2023-02-26T00:53:40;100312.00;;;1.30
11849;BMP180;5983;49.966;8.052;2023-02-26T00:56:10;100306.00;;;1.30
11849;BMP180;5983;49.966;8.052;2023-02-26T00:58:37;100316.00;;;1.30
11849;BMP180;5983;49.966;8.052;2023-02-26T01:01:04;100317.00;;;1.30
11849;BMP180;5983;49.966;8.052;2023-02-26T01:03:32;100311.00;;;1.30
11849;BMP180;5983;49.966;8.052;2023-02-26T01:06:01;100319.00;;;1.30
11849;BMP180;5983;49.966;8.052;2023-02-26T01:08:33;100314.00;;;1.30
11849;BMP180;5983;49.966;8.052;2023-02-26T01:11:06;100319.00;;;1.30
11849;BMP180;5983;49.966;8.052;2023-02-26T01:13:34;100316.00;;;1.30
11849;BMP180;5983;49.966;8.052;2023-02-26T01:16:09;100310.00;;;1.40
11849;BMP180;5983;49.966;8.052;2023-02-26T01:18:42;100312.00;;;1.40
11849;BMP180;5983;49.966;8.052;2023-02-26T01:21:19;100310.00;;;1.50
11849;BMP180;5983;49.966;8.052;2023-02-26T01:23:50;100312.00;;;1.50
11849;BMP180;5983;49.966;8.052;2023-02-26T01:26:21;100318.00;;;1.60
11849;BMP180;5983;49.966;8.052;2023-02-26T01:28:49;100317.00;;;1.70
11849;BMP180;5983;49.966;8.052;2023-02-26T01:31:34;100319.00;;;1.70
11849;BMP180;5983;49.966;8.052;2023-02-26T01:34:14;100313.00;;;1.80
11849;BMP180;5983;49.966;8.052;2023-02-26T01:36:51;100316.00;;;1.90
11849;BMP180;5983;49.966;8.052;2023-02-26T01:39:27;100318.00;;;1.80
11849;BMP180;5983;49.966;8.052;2023-02-26T01:42:04;100325.00;;;1.90
11849;BMP180;5983;49.966;8.052;2023-02-26T01:44:41;100330.00;;;1.90
11849;BMP180;5983;49.966;8.052;2023-02-26T01:47:18;100333.00;;;1.90
11849;BMP180;5983;49.966;8.052;2023-02-26T01:49:47;100325.00;;;1.90
11849;BMP180;5983;49.966;8.052;2023-02-26T01:55:30;100320.00;;;1.90
11849;BMP180;5983;49.966;8.052;2023-02-26T01:58:00;100324.00;;;2.00
11849;BMP180;5983;49.966;8.052;2023-02-26T02:00:30;100325.00;;;2.00
11849;BMP180;5983;49.966;8.052;2023-02-26T02:02:57;100330.00;;;2.00
11849;BMP180;5983;49.966;8.052;2023-02-26T02:05:30;100340.00;;;2.10
11849;BMP180;5983;49.966;8.052;2023-02-26T02:07:59;100333.00;;;2.10
11849;BMP180;5983;49.966;8.052;2023-02-26T02:10:27;100343.00;;;2.10
11849;BMP180;5983;49.966;8.052;2023-02-26T02:13:04;100343.00;;;2.10
11849;BMP180;5983;49.966;8.052;2023-02-26T02:15:41;100350.00;;;2.00
11849;BMP180;5983;49.966;8.052;2023-02-26T02:18:18;100353.00;;;2.00
11849;BMP180;5983;49.966;8.052;2023-02-26T02:21:27;100350.00;;;2.00
11849;BMP180;5983;49.966;8.052;2023-02-26T02:24:09;100360.00;;;2.00
11849;BMP180;5983;49.966;8.052;2023-02-26T02:26:58;100370.00;;;2.00
11849;BMP180;5983;49.966;8.052;2023-02-26T02:29:53;100359.00;;;2.00
11849;BMP180;5983;49.966;8.052;2023-02-26T02:32:34;100354.00;;;2.00
11849;BMP180;5983;49.966;8.052;2023-02-26T02:35:11;100361.00;;;1.90
11849;BMP180;5983;49.966;8.052;2023-02-26T02:37:45;100372.00;;;1.90
11849;BMP180;5983;49.966;8.052;2023-02-26T02:40:18;100364.00;;;1.90
11849;BMP180;5983;49.966;8.052;2023-02-26T02:42:53;100371.00;;;1.80
11849;BMP180;5983;49.966;8.052;2023-02-26T02:45:25;100365.00;;;1.90
11849;BMP180;5983;49.966;8.052;2023-02-26T02:48:00;100375.00;;;1.90
11849;BMP180;5983;49.966;8.052;2023-02-26T02:50:34;100375.00;;;1.80
11849;BMP180;5983;49.966;8.052;2023-02-26T02:53:08;100376.00;;;1.90
11849;BMP180;5983;49.966;8.052;2023-02-26T02:55:42;100381.00;;;1.90
11849;BMP180;5983;49.966;8.052;2023-02-26T02:58:17;100383.00;;;1.90
11849;BMP180;5983;49.966;8.052;2023-02-26T03:00:49;100391.00;;;1.80
11849;BMP180;5983;49.966;8.052;2023-02-26T03:03:24;100391.00;;;1.80
11849;BMP180;5983;49.966;8.052;2023-02-26T03:05:53;100390.00;;;1.90
11849;BMP180;5983;49.966;8.052;2023-02-26T03:08:24;100399.00;;;1.80
11849;BMP180;5983;49.966;8.052;2023-02-26T03:10:53;100409.00;;;1.80
11849;BMP180;5983;49.966;8.052;2023-02-26T03:13:22;100400.00;;;1.80
11849;BMP180;5983;49.966;8.052;2023-02-26T03:16:17;100395.00;;;1.80
11849;BMP180;5983;49.966;8.052;2023-02-26T03:18:59;100407.00;;;1.80
11849;BMP180;5983;49.966;8.052;2023-02-26T03:21:33;100398.00;;;1.80
11849;BMP180;5983;49.966;8.052;2023-02-26T03:24:11;100403.00;;;1.80
11849;BMP180;5983;49.966;8.052;2023-02-26T03:26:45;100401.00;;;1.80
11849;BMP180;5983;49.966;8.052;2023-02-26T03:29:22;100402.00;;;1.80
11849;BMP180;5983;49.966;8.052;2023-02-26T03:31:58;100405.00;;;1.80
11849;BMP180;5983;49.966;8.052;2023-02-26T03:34:34;100412.00;;;1.70
11849;BMP180;5983;49.966;8.052;2023-02-26T03:37:14;100416.00;;;1.70
11849;BMP180;5983;49.966;8.052;2023-02-26T03:39:48;100417.00;;;1.60
11849;BMP180;5983;49.966;8.052;2023-02-26T03:42:23;100414.00;;;1.60
11849;BMP180;5983;49.966;8.052;2023-02-26T03:44:54;100421.00;;;1.60
11849;BMP180;5983;49.966;8.052;2023-02-26T03:47:24;100425.00;;;1.60
11849;BMP180;5983;49.966;8.052;2023-02-26T03:49:57;100420.00;;;1.60
11849;BMP180;5983;49.966;8.052;2023-02-26T03:52:29;100424.00;;;1.60
11849;BMP180;5983;49.966;8.052;2023-02-26T03:55:02;100427.00;;;1.60
11849;BMP180;5983;49.966;8.052;2023-02-26T03:57:30;100430.00;;;1.60
11849;BMP180;5983;49.966;8.052;2023-02-26T03:59:57;100433.00;;;1.60
11849;BMP180;5983;49.966;8.052;2023-02-26T04:02:30;100431.00;;;1.50
11849;BMP180;5983;49.966;8.052;2023-02-26T04:05:06;100441.00;;;1.50
11849;BMP180;5983;49.966;8.052;2023-02-26T04:07:34;100429.00;;;1.50
11849;BMP180;5983;49.966;8.052;2023-02-26T04:10:02;100452.00;;;1.50
11849;BMP180;5983;49.966;8.052;2023-02-26T04:12:30;100446.00;;;1.40
11849;BMP180;5983;49.966;8.052;2023-02-26T04:14:58;100437.00;;;1.40
11849;BMP180;5983;49.966;8.052;2023-02-26T04:17:25;100453.00;;;1.40
11849;BMP180;5983;49.966;8.052;2023-02-26T04:19:52;100453.00;;;1.40
11849;BMP180;5983;49.966;8.052;2023-02-26T04:22:20;100455.00;;;1.30
11849;BMP180;5983;49.966;8.052;2023-02-26T04:24:47;100454.00;;;1.30
11849;BMP180;5983;49.966;8.052;2023-02-26T04:27:14;100473.00;;;1.20
11849;BMP180;5983;49.966;8.052;2023-02-26T04:29:40;100461.00;;;1.10
11849;BMP180;5983;49.966;8.052;2023-02-26T04:32:07;100462.00;;;1.00
11849;BMP180;5983;49.966;8.052;2023-02-26T04:34:34;100469.00;;;1.00
11849;BMP180;5983;49.966;8.052;2023-02-26T04:37:01;100461.00;;;1.00
11849;BMP180;5983;49.966;8.052;2023-02-26T04:39:29;100457.00;;;0.90
11849;BMP180;5983;49.966;8.052;2023-02-26T04:41:56;100468.00;;;0.90
11849;BMP180;5983;49.966;8.052;2023-02-26T04:44:23;100478.00;;;0.80
11849;BMP180;5983;49.966;8.052;2023-02-26T04:46:50;100475.00;;;0.80
11849;BMP180;5983;49.966;8.052;2023-02-26T04:49:17;100471.00;;;0.70
11849;BMP180;5983;49.966;8.052;2023-02-26T04:51:44;100478.00;;;0.60
11849;BMP180;5983;49.966;8.052;2023-02-26T04:54:11;100483.00;;;0.50
11849;BMP180;5983;49.966;8.052;2023-02-26T04:56:39;100484.00;;;0.50
11849;BMP180;5983;49.966;8.052;2023-02-26T04:59:06;100483.00;;;0.50
11849;BMP180;5983;49.966;8.052;2023-02-26T05:01:33;100489.00;;;0.40
11849;BMP180;5983;49.966;8.052;2023-02-26T05:04:00;100488.00;;;0.30
11849;BMP180;5983;49.966;8.052;2023-02-26T05:06:27;100484.00;;;0.30
11849;BMP180;5983;49.966;8.052;2023-02-26T05:08:54;100488.00;;;0.30
11849;BMP180;5983;49.966;8.052;2023-02-26T05:11:21;100495.00;;;0.30
11849;BMP180;5983;49.966;8.052;2023-02-26T05:13:49;100488.00;;;0.30
11849;BMP180;5983;49.966;8.052;2023-02-26T05:16:17;100500.00;;;0.40
11849;BMP180;5983;49.966;8.052;2023-02-26T05:18:44;100495.00;;;0.40
11849;BMP180;5983;49.966;8.052;2023-02-26T05:21:10;100506.00;;;0.50
11849;BMP180;5983;49.966;8.052;2023-02-26T05:23:37;100492.00;;;0.50
11849;BMP180;5983;49.966;8.052;2023-02-26T05:26:04;100506.00;;;0.50
11849;BMP180;5983;49.966;8.052;2023-02-26T05:28:31;100507.00;;;0.50
11849;BMP180;5983;49.966;8.052;2023-02-26T05:31:02;100513.00;;;0.40
11849;BMP180;5983;49.966;8.052;2023-02-26T05:33:29;100511.00;;;0.40
11849;BMP180;5983;49.966;8.052;2023-02-26T05:35:56;100515.00;;;0.40
11849;BMP180;5983;49.966;8.052;2023-02-26T05:38:23;100522.00;;;0.40
11849;BMP180;5983;49.966;8.052;2023-02-26T05:40:55;100519.00;;;0.30
11849;BMP180;5983;49.966;8.052;2023-02-26T05:43:24;100525.00;;;0.30
11849;BMP180;5983;49.966;8.052;2023-02-26T05:45:52;100518.00;;;0.20
11849;BMP180;5983;49.966;8.052;2023-02-26T05:48:22;100516.00;;;0.20
11849;BMP180;5983;49.966;8.052;2023-02-26T05:50:52;100528.00;;;0.20
11849;BMP180;5983;49.966;8.052;2023-02-26T05:53:19;100523.00;;;0.20
11849;BMP180;5983;49.966;8.052;2023-02-26T05:55:47;100537.00;;;0.20
11849;BMP180;5983;49.966;8.052;2023-02-26T05:58:14;100532.00;;;0.20
11849;BMP180;5983;49.966;8.052;2023-02-26T06:00:42;100539.00;;;0.20
11849;BMP180;5983;49.966;8.052;2023-02-26T06:03:09;100531.00;;;0.20
11849;BMP180;5983;49.966;8.052;2023-02-26T06:05:37;100540.00;;;0.20
11849;BMP180;5983;49.966;8.052;2023-02-26T06:08:04;100555.00;;;0.30
11849;BMP180;5983;49.966;8.052;2023-02-26T06:10:32;100550.00;;;0.30
11849;BMP180;5983;49.966;8.052;2023-02-26T06:12:59;100553.00;;;0.20
11849;BMP180;5983;49.966;8.052;2023-02-26T06:15:26;100544.00;;;0.20
11849;BMP180;5983;49.966;8.052;2023-02-26T06:17:53;100550.00;;;0.10
11849;BMP180;5983;49.966;8.052;2023-02-26T06:20:20;100556.00;;;0.10
11849;BMP180;5983;49.966;8.052;2023-02-26T06:22:48;100560.00;;;0.10
11849;BMP180;5983;49.966;8.052;2023-02-26T06:25:15;100561.00;;;0.00
11849;BMP180;5983;49.966;8.052;2023-02-26T06:27:42;100566.00;;;0.00
11849;BMP180;5983;49.966;8.052;2023-02-26T06:30:11;100571.00;;;0.00
11849;BMP180;5983;49.966;8.052;2023-02-26T06:32:38;100573.00;;;-0.10
11849;BMP180;5983;49.966;8.052;2023-02-26T06:35:06;100579.00;;;-0.10
11849;BMP180;5983;49.966;8.052;2023-02-26T06:37:33;100578.00;;;0.00
11849;BMP180;5983;49.966;8.052;2023-02-26T06:40:02;100579.00;;;0.00
11849;BMP180;5983;49.966;8.052;2023-02-26T06:42:29;100596.00;;;0.10
11849;BMP180;5983;49.966;8.052;2023-02-26T06:44:56;100596.00;;;0.20
11849;BMP180;5983;49.966;8.052;2023-02-26T06:47:23;100595.00;;;0.30
11849;BMP180;5983;49.966;8.052;2023-02-26T06:49:50;100599.00;;;0.40
11849;BMP180;5983;49.966;8.052;2023-02-26T06:52:17;100614.00;;;0.60
11849;BMP180;5983;49.966;8.052;2023-02-26T06:54:45;100614.00;;;0.80
11849;BMP180;5983;49.966;8.052;2023-02-26T06:57:13;100619.00;;;1.10
11849;BMP180;5983;49.966;8.052;2023-02-26T06:59:40;100622.00;;;1.40
11849;BMP180;5983;49.966;8.052;2023-02-26T07:02:16;100619.00;;;1.50
11849;BMP180;5983;49.966;8.052;2023-02-26T07:04:43;100621.00;;;1.80
11849;BMP180;5983;49.966;8.052;2023-02-26T07:07:11;100638.00;;;2.10
11849;BMP180;5983;49.966;8.052;2023-02-26T07:09:38;100638.00;;;2.50
11849;BMP180;5983;49.966;8.052;2023-02-26T07:12:05;100640.00;;;2.90
11849;BMP180;5983;49.966;8.052;2023-02-26T07:14:34;100655.00;;;3.30
11849;BMP180;5983;49.966;8.052;2023-02-26T07:17:01;100656.00;;;3.70
11849;BMP180;5983;49.966;8.052;2023-02-26T07:19:28;100665.00;;;4.10
11849;BMP180;5983;49.966;8.052;2023-02-26T07:21:55;100681.00;;;4.60
11849;BMP180;5983;49.966;8.052;2023-02-26T07:24:22;100687.00;;;5.00
11849;BMP180;5983;49.966;8.052;2023-02-26T07:26:50;100696.00;;;5.40
11849;BMP180;5983;49.966;8.052;2023-02-26T07:29:17;100702.00;;;5.80
11849;BMP180;5983;49.966;8.052;2023-02-26T07:31:45;100710.00;;;6.30
11849;BMP180;5983;49.966;8.052;2023-02-26T07:34:12;100722.00;;;6.90
11849;BMP180;5983;49.966;8.052;2023-02-26T07:36:39;100716.00;;;7.30
11849;BMP180;5983;49.966;8.052;2023-02-26T07:39:06;100736.00;;;7.80
11849;BMP180;5983;49.966;8.052;2023-02-26T07:41:33;100738.00;;;8.20
11849;BMP180;5983;49.966;8.052;2023-02-26T07:44:00;100743.00;;;8.40
11849;BMP180;5983;49.966;8.052;2023-02-26T07:46:27;100732.00;;;8.90
11849;BMP180;5983;49.966;8.052;2023-02-26T07:48:55;100739.00;;;9.60
11849;BMP180;5983;49.966;8.052;2023-02-26T07:51:22;100754.00;;;10.10
11849;BMP180;5983;49.966;8.052;2023-02-26T07:53:49;100755.00;;;10.60
11849;BMP180;5983;49.966;8.052;2023-02-26T07:56:16;100757.00;;;11.40
11849;BMP180;5983;49.966;8.052;2023-02-26T07:58:43;100765.00;;;12.10
11849;BMP180;5983;49.966;8.052;2023-02-26T08:01:10;100756.00;;;12.50
11849;BMP180;5983;49.966;8.052;2023-02-26T08:03:37;100761.00;;;13.00
11849;BMP180;5983;49.966;8.052;2023-02-26T08:06:06;100769.00;;;13.80
11849;BMP180;5983;49.966;8.052;2023-02-26T08:08:33;100767.00;;;14.20
11849;BMP180;5983;49.966;8.052;2023-02-26T08:11:01;100772.00;;;14.50
11849;BMP180;5983;49.966;8.052;2023-02-26T08:13:27;100779.00;;;15.00
11849;BMP180;5983;49.966;8.052;2023-02-26T08:15:54;100782.00;;;15.50
11849;BMP180;5983;49.966;8.052;2023-02-26T08:18:21;100779.00;;;15.30
11849;BMP180;5983;49.966;8.052;2023-02-26T08:20:50;100786.00;;;14.40
11849;BMP180;5983;49.966;8.052;2023-02-26T08:23:19;100782.00;;;13.50
11849;BMP180;5983;49.966;8.052;2023-02-26T08:25:46;100784.00;;;12.70
11849;BMP180;5983;49.966;8.052;2023-02-26T08:28:13;100780.00;;;11.90
11849;BMP180;5983;49.966;8.052;2023-02-26T08:30:40;100787.00;;;11.10
11849;BMP180;5983;49.966;8.052;2023-02-26T08:33:07;100788.00;;;10.80
11849;BMP180;5983;49.966;8.052;2023-02-26T08:35:34;100798.00;;;10.40
11849;BMP180;5983;49.966;8.052;2023-02-26T08:38:01;100797.00;;;10.70
11849;BMP180;5983;49.966;8.052;2023-02-26T08:40:29;100803.00;;;10.40
11849;BMP180;5983;49.966;8.052;2023-02-26T08:42:56;100808.00;;;9.90
11849;BMP180;5983;49.966;8.052;2023-02-26T08:45:23;100800.00;;;8.80
11849;BMP180;5983;49.966;8.052;2023-02-26T08:47:50;100807.00;;;7.80
11849;BMP180;5983;49.966;8.052;2023-02-26T08:50:18;100796.00;;;7.00
11849;BMP180;5983;49.966;8.052;2023-02-26T08:52:45;100798.00;;;6.50
11849;BMP180;5983;49.966;8.052;2023-02-26T08:55:12;100814.00;;;6.00
11849;BMP180;5983;49.966;8.052;2023-02-26T08:57:41;100805.00;;;5.60
11849;BMP180;5983;49.966;8.052;2023-02-26T09:00:10;100807.00;;;5.20
11849;BMP180;5983;49.966;8.052;2023-02-26T09:02:37;100818.00;;;5.20
11849;BMP180;5983;49.966;8.052;2023-02-26T09:05:05;100824.00;;;5.30
11849;BMP180;5983;49.966;8.052;2023-02-26T09:07:32;100820.00;;;5.40
11849;BMP180;5983;49.966;8.052;2023-02-26T09:09:59;100819.00;;;5.60
11849;BMP180;5983;49.966;8.052;2023-02-26T09:12:26;100823.00;;;5.50
11849;BMP180;5983;49.966;8.052;2023-02-26T09:14:55;100817.00;;;5.30
11849;BMP180;5983;49.966;8.052;2023-02-26T09:17:25;100828.00;;;5.20
11849;BMP180;5983;49.966;8.052;2023-02-26T09:19:52;100832.00;;;4.90
11849;BMP180;5983;49.966;8.052;2023-02-26T09:22:19;100833.00;;;4.80
11849;BMP180;5983;49.966;8.052;2023-02-26T09:24:46;100831.00;;;4.80
11849;BMP180;5983;49.966;8.052;2023-02-26T09:27:13;100836.00;;;4.80
11849;BMP180;5983;49.966;8.052;2023-02-26T09:29:40;100846.00;;;4.80
11849;BMP180;5983;49.966;8.052;2023-02-26T09:32:09;100847.00;;;4.80
11849;BMP180;5983;49.966;8.052;2023-02-26T09:34:37;100849.00;;;5.00
11849;BMP180;5983;49.966;8.052;2023-02-26T09:37:06;100854.00;;;5.50
11849;BMP180;5983;49.966;8.052;2023-02-26T09:39:35;100848.00;;;6.90
11849;BMP180;5983;49.966;8.052;2023-02-26T09:42:17;100858.00;;;9.40
11849;BMP180;5983;49.966;8.052;2023-02-26T09:44:48;100870.00;;;11.10
11849;BMP180;5983;49.966;8.052;2023-02-26T09:47:24;100871.00;;;11.30
11849;BMP180;5983;49.966;8.052;2023-02-26T09:49:58;100872.00;;;12.90
11849;BMP180;5983;49.966;8.052;2023-02-26T09:52:36;100881.00;;;13.90
11849;BMP180;5983;49.966;8.052;2023-02-26T09:55:14;100888.00;;;15.20
11849;BMP180;5983;49.966;8.052;2023-02-26T09:57:46;100898.00;;;15.00
11849;BMP180;5983;49.966;8.052;2023-02-26T10:00:23;100896.00;;;14.70
11849;BMP180;5983;49.966;8.052;2023-02-26T10:03:08;100903.00;;;15.70
11849;BMP180;5983;49.966;8.052;2023-02-26T10:05:44;100903.00;;;16.40
11849;BMP180;5983;49.966;8.052;2023-02-26T10:08:17;100900.00;;;17.60
11849;BMP180;5983;49.966;8.052;2023-02-26T10:10:58;100910.00;;;17.10
11849;BMP180;5983;49.966;8.052;2023-02-26T10:13:36;100902.00;;;16.80
11849;BMP180;5983;49.966;8.052;2023-02-26T10:16:10;100906.00;;;17.10
11849;BMP180;5983;49.966;8.052;2023-02-26T10:18:45;100910.00;;;17.80
11849;BMP180;5983;49.966;8.052;2023-02-26T10:21:19;100916.00;;;17.00
11849;BMP180;5983;49.966;8.052;2023-02-26T10:23:53;100912.00;;;14.90
11849;BMP180;5983;49.966;8.052;2023-02-26T10:26:24;100911.00;;;12.70
11849;BMP180;5983;49.966;8.052;2023-02-26T10:29:03;100911.00;;;11.20
11849;BMP180;5983;49.966;8.052;2023-02-26T10:31:40;100916.00;;;9.90
11849;BMP180;5983;49.966;8.052;2023-02-26T10:34:24;100911.00;;;9.40
11849;BMP180;5983;49.966;8.052;2023-02-26T10:37:03;100923.00;;;9.50
11849;BMP180;5983;49.966;8.052;2023-02-26T10:39:42;100907.00;;;8.90
11849;BMP180;5983;49.966;8.052;2023-02-26T10:42:16;100920.00;;;8.10
11849;BMP180;5983;49.966;8.052;2023-02-26T10:45:08;100911.00;;;7.70
11849;BMP180;5983;49.966;8.052;2023-02-26T10:47:44;100906.00;;;7.50
11849;BMP180;5983;49.966;8.052;2023-02-26T10:50:16;100917.00;;;7.40
11849;BMP180;5983;49.966;8.052;2023-02-26T10:52:48;100922.00;;;7.70
11849;BMP180;5983;49.966;8.052;2023-02-26T10:55:32;100916.00;;;8.00
11849;BMP180;5983;49.966;8.052;2023-02-26T10:58:08;100920.00;;;8.20
11849;BMP180;5983;49.966;8.052;2023-02-26T11:00:38;100922.00;;;8.30
11849;BMP180;5983;49.966;8.052;2023-02-26T11:03:09;100931.00;;;8.10
11849;BMP180;5983;49.966;8.052;2023-02-26T11:05:40;100934.00;;;8.10
11849;BMP180;5983;49.966;8.052;2023-02-26T11:08:15;100924.00;;;7.90
11849;BMP180;5983;49.966;8.052;2023-02-26T11:10:50;100926.00;;;7.50
11849;BMP180;5983;49.966;8.052;2023-02-26T11:13:21;100937.00;;;7.60
11849;BMP180;5983;49.966;8.052;2023-02-26T11:15:52;100933.00;;;7.80
11849;BMP180;5983;49.966;8.052;2023-02-26T11:18:24;100941.00;;;7.60
11849;BMP180;5983;49.966;8.052;2023-02-26T11:20:57;100942.00;;;8.10
11849;BMP180;5983;49.966;8.052;2023-02-26T11:23:29;100950.00;;;9.80
11849;BMP180;5983;49.966;8.052;2023-02-26T11:26:02;100947.00;;;10.60
11849;BMP180;5983;49.966;8.052;2023-02-26T11:28:34;100941.00;;;11.00
11849;BMP180;5983;49.966;8.052;2023-02-26T11:31:05;100943.00;;;12.00
11849;BMP180;5983;49.966;8.052;2023-02-26T11:33:37;100952.00;;;13.40
11849;BMP180;5983;49.966;8.052;2023-02-26T11:36:10;100953.00;;;13.20
11849;BMP180;5983;49.966;8.052;2023-02-26T11:38:38;100952.00;;;11.80
11849;BMP180;5983;49.966;8.052;2023-02-26T11:41:06;100943.00;;;10.80
11849;BMP180;5983;49.966;8.052;2023-02-26T11:43:38;100942.00;;;9.90
11849;BMP180;5983;49.966;8.052;2023-02-26T11:46:10;100952.00;;;9.20
11849;BMP180;5983;49.966;8.052;2023-02-26T11:48:42;100942.00;;;8.80
11849;BMP180;5983;49.966;8.052;2023-02-26T11:51:18;100939.00;;;8.60
11849;BMP180;5983;49.966;8.052;2023-02-26T11:53:50;100947.00;;;8.40
11849;BMP180;5983;49.966;8.052;2023-02-26T11:56:30;100936.00;;;8.30
11849;BMP180;5983;49.966;8.052;2023-02-26T11:59:06;100936.00;;;8.10
11849;BMP180;5983;49.966;8.052;2023-02-26T12:01:36;100939.00;;;7.70
11849;BMP180;5983;49.966;8.052;2023-02-26T12:04:04;100938.00;;;7.60
11849;BMP180;5983;49.966;8.052;2023-02-26T12:06:34;100934.00;;;7.50
11849;BMP180;5983;49.966;8.052;2023-02-26T12:09:01;100944.00;;;7.30
11849;BMP180;5983;49.966;8.052;2023-02-26T12:12:08;100940.00;;;7.30
11849;BMP180;5983;49.966;8.052;2023-02-26T12:14:57;100925.00;;;7.50
11849;BMP180;5983;49.966;8.052;2023-02-26T12:17:51;100937.00;;;8.20
11849;BMP180;5983;49.966;8.052;2023-02-26T12:20:25;100939.00;;;10.00
11849;BMP180;5983;49.966;8.052;2023-02-26T12:23:17;100938.00;;;9.70
11849;BMP180;5983;49.966;8.052;2023-02-26T12:26:06;100943.00;;;11.80
11849;BMP180;5983;49.966;8.052;2023-02-26T12:29:11;100952.00;;;12.20
11849;BMP180;5983;49.966;8.052;2023-02-26T12:32:12;100945.00;;;10.70
11849;BMP180;5983;49.966;8.052;2023-02-26T12:35:14;100946.00;;;9.70
11849;BMP180;5983;49.966;8.052;2023-02-26T12:41:12;100960.00;;;8.20
11849;BMP180;5983;49.966;8.052;2023-02-26T12:43:47;100941.00;;;7.80
11849;BMP180;5983;49.966;8.052;2023-02-26T12:46:46;100935.00;;;7.60
11849;BMP180;5983;49.966;8.052;2023-02-26T12:49:45;100942.00;;;7.50
11849;BMP180;5983;49.966;8.052;2023-02-26T12:52:39;100942.00;;;7.50
11849;BMP180;5983;49.966;8.052;2023-02-26T12:55:21;100936.00;;;7.30
11849;BMP180;5983;49.966;8.052;2023-02-26T12:58:29;100938.00;;;7.40
11849;BMP180;5983;49.966;8.052;2023-02-26T13:04:53;100940.00;;;7.20
11849;BMP180;5983;49.966;8.052;2023-02-26T13:07:49;100946.00;;;7.10
11849;BMP180;5983;49.966;8.052;2023-02-26T13:10:28;100948.00;;;7.00
11849;BMP180;5983;49.966;8.052;2023-02-26T13:13:18;100953.00;;;6.90
11849;BMP180;5983;49.966;8.052;2023-02-26T13:16:09;100954.00;;;6.80
11849;BMP180;5983;49.966;8.052;2023-02-26T13:18:48;100957.00;;;6.70
11849;BMP180;5983;49.966;8.052;2023-02-26T13:21:23;100957.00;;;6.80
11849;BMP180;5983;49.966;8.052;2023-02-26T13:23:55;100961.00;;;7.40
11849;BMP180;5983;49.966;8.052;2023-02-26T13:26:25;100963.00;;;7.60
11849;BMP180;5983;49.966;8.052;2023-02-26T13:28:58;100959.00;;;8.10
11849;BMP180;5983;49.966;8.052;2023-02-26T13:31:31;100953.00;;;8.00
11849;BMP180;5983;49.966;8.052;2023-02-26T13:34:05;100956.00;;;7.70
11849;BMP180;5983;49.966;8.052;2023-02-26T13:36:36;100968.00;;;7.30
11849;BMP180;5983;49.966;8.052;2023-02-26T13:39:31;100954.00;;;7.00
11849;BMP180;5983;49.966;8.052;2023-02-26T13:42:11;100962.00;;;6.80
11849;BMP180;5983;49.966;8.052;2023-02-26T13:45:01;100952.00;;;6.70
11849;BMP180;5983;49.966;8.052;2023-02-26T13:47:58;100958.00;;;6.70
11849;BMP180;5983;49.966;8.052;2023-02-26T13:50:39;100955.00;;;6.50
11849;BMP180;5983;49.966;8.052;2023-02-26T13:53:48;100961.00;;;6.50
11849;BMP180;5983;49.966;8.052;2023-02-26T13:56:22;100959.00;;;6.50
11849;BMP180;5983;49.966;8.052;2023-02-26T13:59:34;100956.00;;;6.70
11849;BMP180;5983;49.966;8.052;2023-02-26T14:02:35;100957.00;;;6.90
11849;BMP180;5983;49.966;8.052;2023-02-26T14:11:45;100969.00;;;6.20
11849;BMP180;5983;49.966;8.052;2023-02-26T14:14:33;100962.00;;;6.10
11849;BMP180;5983;49.966;8.052;2023-02-26T14:17:35;100968.00;;;5.80
11849;BMP180;5983;49.966;8.052;2023-02-26T14:20:22;100967.00;;;5.80
11849;BMP180;5983;49.966;8.052;2023-02-26T14:25:47;100979.00;;;5.70
11849;BMP180;5983;49.966;8.052;2023-02-26T14:28:41;100970.00;;;5.50
11849;BMP180;5983;49.966;8.052;2023-02-26T14:31:21;100971.00;;;5.40
11849;BMP180;5983;49.966;8.052;2023-02-26T14:34:11;100976.00;;;5.40
11849;BMP180;5983;49.966;8.052;2023-02-26T14:36:44;100978.00;;;5.60
11849;BMP180;5983;49.966;8.052;2023-02-26T14:39:27;100985.00;;;5.90
11849;BMP180;5983;49.966;8.052;2023-02-26T14:42:03;100994.00;;;6.50
11849;BMP180;5983;49.966;8.052;2023-02-26T14:44:37;100988.00;;;7.00
11849;BMP180;5983;49.966;8.052;2023-02-26T14:47:07;100987.00;;;7.70
11849;BMP180;5983;49.966;8.052;2023-02-26T14:49:40;100996.00;;;8.60
11849;BMP180;5983;49.966;8.052;2023-02-26T14:52:30;101004.00;;;9.10
11849;BMP180;5983;49.966;8.052;2023-02-26T14:55:29;100993.00;;;9.60
11849;BMP180;5983;49.966;8.052;2023-02-26T14:58:31;101003.00;;;9.10
11849;BMP180;5983;49.966;8.052;2023-02-26T15:01:17;100997.00;;;9.00
11849;BMP180;5983;49.966;8.052;2023-02-26T15:04:19;101002.00;;;8.80
11849;BMP180;5983;49.966;8.052;2023-02-26T15:07:14;101006.00;;;8.30
11849;BMP180;5983;49.966;8.052;2023-02-26T15:10:01;100995.00;;;8.00
11849;BMP180;5983;49.966;8.052;2023-02-26T15:12:45;100997.00;;;7.80
11849;BMP180;5983;49.966;8.052;2023-02-26T15:15:32;100997.00;;;7.70